Time;durP1;ratioP1;P1;durP2;ratioP2;P2;SDS_P1;SDS_P2;PMS_P1;PMS_P2;Temp;Humidity;BMP_temperature;BMP_pressure;BME280_temperature;BME280_humidity;BME280_pressure;Samples;Min_cycle;Max_cycle;Signal;HPM_P1;HPM_P2
2022/09/07 00:00:39;;;;;;;3.17;2.88;;;;;;;15.70;78.65;95092.38;5109380;28;20294;-78
2022/09/07 00:03:06;;;;;;;4.50;2.90;;;;;;;15.64;78.61;95091.84;5108561;28;20198;-76
2022/09/07 00:05:33;;;;;;;3.50;2.75;;;;;;;15.59;78.79;95101.06;5108882;28;20631;-77
2022/09/07 00:08:00;;;;;;;4.00;3.00;;;;;;;15.54;79.37;95106.75;5108587;28;20205;-78
2022/09/07 00:10:27;;;;;;;6.15;3.40;;;;;;;15.46;79.93;95104.94;5108598;28;20262;-79
2022/09/07 00:12:54;;;;;;;3.25;2.95;;;;;;;15.37;80.16;95107.03;5109243;28;20281;-81
2022/09/07 00:15:21;;;;;;;3.35;3.05;;;;;;;15.22;80.49;95111.28;5109166;28;20202;-80
2022/09/07 00:17:50;;;;;;;4.72;3.22;;;;;;;15.18;80.90;95109.56;5109730;28;20201;-80
2022/09/07 00:20:17;;;;;;;6.72;3.53;;;;;;;15.10;81.77;95114.03;5111866;28;20764;-80
2022/09/07 00:22:45;;;;;;;4.78;3.38;;;;;;;15.16;81.67;95111.88;5113186;28;20214;-81
2022/09/07 00:25:12;;;;;;;6.88;3.53;;;;;;;15.07;81.97;95111.19;5112809;28;20207;-81
2022/09/07 00:27:39;;;;;;;8.60;3.90;;;;;;;14.97;82.32;95108.94;5112965;28;20234;-81
2022/09/07 00:30:06;;;;;;;4.72;3.42;;;;;;;14.86;82.61;95112.16;5119298;27;20224;-80
2022/09/07 00:32:34;;;;;;;4.95;3.63;;;;;;;14.87;82.59;95104.75;5133709;27;20265;-80
2022/09/07 00:35:02;;;;;;;4.05;3.53;;;;;;;14.91;82.94;95114.63;5133530;27;20232;-80
2022/09/07 00:37:28;;;;;;;5.03;3.40;;;;;;;14.85;82.98;95102.38;5133166;27;20243;-80
2022/09/07 00:39:55;;;;;;;5.63;3.90;;;;;;;14.81;83.21;95109.66;5132551;27;20282;-80
2022/09/07 00:42:23;;;;;;;4.68;3.35;;;;;;;14.77;83.34;95110.66;5133649;27;20267;-80
2022/09/07 00:45:11;;;;;;;5.93;3.58;;;;;;;14.80;84.01;95116.22;5133161;27;20238;-80
2022/09/07 00:47:44;;;;;;;3.83;3.35;;;;;;;14.71;84.59;95112.03;5120151;27;20190;-81
2022/09/07 00:50:19;;;;;;;5.80;4.00;;;;;;;14.70;84.19;95110.44;5111744;28;20190;-81
2022/09/07 00:52:51;;;;;;;5.28;3.67;;;;;;;14.69;84.40;95109.66;5111418;28;20190;-80
2022/09/07 00:55:19;;;;;;;4.43;3.55;;;;;;;14.61;84.83;95107.84;5111901;28;20182;-78
2022/09/07 00:57:52;;;;;;;6.05;3.90;;;;;;;14.54;85.12;95105.69;5112653;28;20206;-79
2022/09/07 01:00:18;;;;;;;7.38;4.18;;;;;;;14.51;84.88;95102.81;5111922;28;20238;-79
2022/09/07 01:02:48;;;;;;;5.72;3.85;;;;;;;14.53;85.49;95114.19;5112389;28;20913;-79
2022/09/07 01:05:21;;;;;;;5.28;3.88;;;;;;;14.39;86.07;95110.97;5112185;28;20259;-79
2022/09/07 01:07:48;;;;;;;7.95;3.95;;;;;;;14.36;86.23;95107.00;5112196;28;20637;-78
2022/09/07 01:10:15;;;;;;;8.73;4.10;;;;;;;14.36;86.10;95104.25;5111368;28;20674;-79
2022/09/07 01:12:42;;;;;;;6.05;4.03;;;;;;;14.37;86.79;95102.34;5112197;28;20194;-79
2022/09/07 01:15:10;;;;;;;4.57;3.33;;;;;;;14.30;85.84;95096.66;5111971;28;20210;-79
2022/09/07 01:17:52;;;;;;;4.93;3.15;;;;;;;14.37;84.17;95091.44;5111908;28;20202;-78
2022/09/07 01:20:54;;;;;;;4.47;3.20;;;;;;;14.27;84.25;95092.69;5111743;28;20217;-79
2022/09/07 01:23:58;;;;;;;3.42;2.80;;;;;;;14.21;83.59;95099.50;5096517;28;20197;-79
2022/09/07 01:27:09;;;;;;;3.85;2.72;;;;;;;14.20;82.90;95097.91;5111773;28;20633;-79
2022/09/07 01:29:45;;;;;;;2.75;2.53;;;;;;;14.24;81.92;95088.69;5075619;27;20225;-78
2022/09/07 01:32:25;;;;;;;3.58;2.60;;;;;;;14.22;81.51;95090.97;5131331;27;20287;-78
2022/09/07 01:34:54;;;;;;;4.82;2.92;;;;;;;14.12;82.22;95085.97;5132083;27;20245;-79
2022/09/07 01:37:29;;;;;;;3.55;2.40;;;;;;;14.16;81.69;95086.09;5132280;27;20265;-79
2022/09/07 01:40:07;;;;;;;4.47;2.75;;;;;;;14.18;81.39;95084.63;5131483;27;20743;-80
2022/09/07 01:42:44;;;;;;;3.78;2.72;;;;;;;14.23;81.13;95092.56;5131567;27;20276;-81
2022/09/07 01:45:15;;;;;;;2.97;2.30;;;;;;;14.11;81.34;95089.81;5131743;27;20662;-80
2022/09/07 01:47:46;;;;;;;3.92;2.55;;;;;;;14.18;80.69;95095.53;5118345;27;20247;-79
2022/09/07 01:50:18;;;;;;;4.45;2.72;;;;;;;14.14;80.73;95094.59;5110794;28;20247;-80
2022/09/07 01:52:53;;;;;;;5.47;2.72;;;;;;;14.09;81.25;95089.34;5111134;28;20193;-80
2022/09/07 01:55:26;;;;;;;4.22;2.40;;;;;;;14.04;81.21;95084.16;5110459;28;20238;-80
2022/09/07 01:57:56;;;;;;;3.92;2.25;;;;;;;14.10;81.18;95077.31;5111342;28;20182;-80
2022/09/07 02:00:25;;;;;;;3.83;2.40;;;;;;;14.10;80.76;95082.78;5110728;28;20234;-79
2022/09/07 02:02:57;;;;;;;4.55;2.42;;;;;;;14.04;80.97;95089.59;5111371;28;20250;-80
2022/09/07 02:05:29;;;;;;;3.55;2.08;;;;;;;14.06;80.49;95091.97;5110876;28;20182;-79
2022/09/07 02:08:00;;;;;;;3.90;2.38;;;;;;;14.03;80.71;95087.19;5110935;28;20665;-80
2022/09/07 02:10:33;;;;;;;3.67;2.50;;;;;;;13.97;81.08;95089.34;5110351;28;20271;-80
2022/09/07 02:13:05;;;;;;;3.25;2.50;;;;;;;13.87;81.54;95081.59;5110487;28;20190;-80
2022/09/07 02:15:44;;;;;;;3.40;2.78;;;;;;;13.82;81.79;95087.25;5110658;28;20240;-78
2022/09/07 02:18:13;;;;;;;3.55;2.90;;;;;;;13.81;81.96;95091.09;5111279;28;20182;-79
2022/09/07 02:20:44;;;;;;;3.47;2.40;;;;;;;13.80;82.02;95086.81;5110374;28;20253;-80
2022/09/07 02:23:17;;;;;;;3.47;2.70;;;;;;;13.76;81.71;95081.25;5110819;28;20200;-80
2022/09/07 02:25:51;;;;;;;4.30;2.80;;;;;;;13.72;82.26;95082.25;5109699;28;20196;-80
2022/09/07 02:28:22;;;;;;;6.20;2.10;;;;;;;13.68;80.95;95070.41;5109938;28;20192;-79
2022/09/07 02:30:50;;;;;;;4.82;2.60;;;;;;;13.66;81.18;95073.50;5122415;27;20225;-80
2022/09/07 02:33:17;;;;;;;4.53;2.10;;;;;;;13.62;80.41;95086.19;5130163;27;20214;-80
2022/09/07 02:35:45;;;;;;;2.40;2.20;;;;;;;13.58;81.33;95073.56;5130320;27;20221;-79
2022/09/07 02:38:11;;;;;;;4.13;2.80;;;;;;;13.50;82.36;95076.06;5130981;27;20209;-79
2022/09/07 02:40:38;;;;;;;4.13;2.75;;;;;;;13.34;83.49;95072.38;5130973;27;20589;-80
2022/09/07 02:43:08;;;;;;;4.40;3.08;;;;;;;13.29;84.69;95086.16;5130486;27;20197;-80
2022/09/07 02:45:46;;;;;;;8.50;3.10;;;;;;;13.26;85.43;95081.38;5130847;27;20265;-80
2022/09/07 02:48:22;;;;;;;4.35;3.53;;;;;;;13.21;86.73;95078.88;5113108;27;20586;-80
2022/09/07 02:51:08;;;;;;;4.15;3.15;;;;;;;13.19;86.81;95092.00;5110562;28;20219;-80
2022/09/07 02:54:08;;;;;;;5.03;3.33;;;;;;;13.19;87.59;95081.13;5110581;28;20185;-80
2022/09/07 02:56:50;;;;;;;5.00;3.92;;;;;;;13.26;87.40;95103.16;5109310;28;20194;-80
2022/09/07 02:59:37;;;;;;;6.78;4.15;;;;;;;13.19;88.16;95086.56;5110052;28;20186;-79
2022/09/07 03:02:10;;;;;;;7.30;3.80;;;;;;;13.18;89.15;95093.13;5109863;28;20282;-79
2022/09/07 03:04:45;;;;;;;4.95;3.90;;;;;;;13.15;89.26;95093.78;5110265;28;20255;-80
2022/09/07 03:07:16;;;;;;;6.68;4.30;;;;;;;13.16;89.34;95092.66;5110295;28;20266;-80
2022/09/07 03:09:46;;;;;;;7.88;4.47;;;;;;;13.10;89.39;95102.16;5110247;28;20198;-80
2022/09/07 03:12:14;;;;;;;7.60;4.45;;;;;;;13.08;90.17;95096.25;5110031;28;20243;-80
2022/09/07 03:14:42;;;;;;;9.90;3.78;;;;;;;13.11;90.00;95095.59;5109546;28;20197;-80
2022/09/07 03:17:10;;;;;;;5.40;3.88;;;;;;;13.10;89.99;95093.97;5109825;28;20242;-80
2022/09/07 03:19:38;;;;;;;5.57;3.92;;;;;;;13.09;89.75;95100.56;5110231;28;20608;-79
2022/09/07 03:22:06;;;;;;;4.20;3.47;;;;;;;13.06;88.51;95093.03;5109734;28;20225;-80
2022/09/07 03:24:33;;;;;;;4.05;3.40;;;;;;;13.06;88.51;95093.84;5109791;28;20202;-80
2022/09/07 03:27:00;;;;;;;5.82;3.60;;;;;;;13.11;88.11;95084.69;5108903;28;20247;-80
2022/09/07 03:29:27;;;;;;;5.53;3.67;;;;;;;13.16;87.92;95087.22;5109914;28;20225;-79
2022/09/07 03:31:54;;;;;;;5.93;3.72;;;;;;;13.13;88.28;95087.84;5129838;28;20193;-80
2022/09/07 03:34:20;;;;;;;5.38;4.15;;;;;;;13.14;88.02;95090.28;5130721;28;20204;-79
2022/09/07 03:36:48;;;;;;;7.40;4.40;;;;;;;13.18;88.21;95095.84;5129987;27;20604;-78
2022/09/07 03:39:19;;;;;;;4.55;3.20;;;;;;;13.17;88.14;95099.72;5130497;28;20273;-78
2022/09/07 03:41:47;;;;;;;7.53;4.65;;;;;;;13.12;88.77;95102.59;5130048;28;20312;-79
2022/09/07 03:44:14;;;;;;;7.30;3.85;;;;;;;13.06;88.71;95109.38;5130011;28;20215;-79
2022/09/07 03:46:43;;;;;;;7.88;4.30;;;;;;;13.04;88.87;95115.13;5125083;28;20618;-78
2022/09/07 03:49:10;;;;;;;5.20;3.97;;;;;;;13.02;88.99;95113.88;5109677;28;20216;-79
2022/09/07 03:51:36;;;;;;;6.45;4.28;;;;;;;13.05;88.56;95110.50;5109734;28;20198;-78
2022/09/07 03:54:05;;;;;;;6.75;4.45;;;;;;;12.94;89.21;95107.38;5110461;28;20205;-80
2022/09/07 03:56:32;;;;;;;6.65;4.13;;;;;;;12.95;89.89;95119.03;5113584;28;20271;-78
2022/09/07 03:58:59;;;;;;;6.82;4.40;;;;;;;12.89;90.22;95120.34;5113085;28;20282;-78
2022/09/07 04:01:27;;;;;;;6.68;4.35;;;;;;;12.95;89.93;95119.03;5113039;28;20700;-78
2022/09/07 04:03:57;;;;;;;8.02;5.00;;;;;;;12.95;90.17;95113.59;5113290;28;20713;-78
2022/09/07 04:06:25;;;;;;;5.43;4.47;;;;;;;12.93;90.20;95108.50;5112622;28;20663;-79
2022/09/07 04:08:52;;;;;;;5.78;4.28;;;;;;;12.99;90.37;95109.09;5112488;28;20220;-79
2022/09/07 04:11:20;;;;;;;7.50;4.65;;;;;;;13.05;90.50;95115.94;5112902;28;20204;-78
2022/09/07 04:13:47;;;;;;;8.55;4.07;;;;;;;13.15;90.62;95119.06;5112062;28;20194;-79
2022/09/07 04:16:17;;;;;;;7.50;4.18;;;;;;;13.63;89.58;95111.50;5112509;28;20205;-80
2022/09/07 04:18:44;;;;;;;7.57;4.63;;;;;;;14.56;86.20;95105.34;5113201;28;20649;-80
2022/09/07 04:21:11;;;;;;;6.80;4.35;;;;;;;15.60;80.65;95105.38;5112993;28;20284;-80
2022/09/07 04:23:39;;;;;;;7.18;4.78;;;;;;;16.61;75.82;95104.13;5113475;28;20204;-80
2022/09/07 04:26:06;;;;;;;6.00;4.18;;;;;;;17.41;71.85;95109.09;5113152;28;20225;-79
2022/09/07 04:28:34;;;;;;;12.48;5.10;;;;;;;17.91;71.25;95099.16;5112480;28;20212;-79
2022/09/07 04:31:02;;;;;;;6.68;4.30;;;;;;;18.37;67.97;95100.81;5126778;27;20694;-79
2022/09/07 04:33:31;;;;;;;11.25;4.63;;;;;;;18.96;66.32;95099.47;5133429;27;20197;-79
2022/09/07 04:35:59;;;;;;;5.78;3.95;;;;;;;19.04;65.17;95094.84;5132985;27;20281;-79
2022/09/07 04:38:25;;;;;;;6.30;3.67;;;;;;;19.37;64.68;95103.19;5133152;27;20223;-79
2022/09/07 04:40:59;;;;;;;5.70;4.30;;;;;;;20.45;61.77;95095.84;5133180;27;20662;-79
2022/09/07 04:43:26;;;;;;;3.97;3.58;;;;;;;20.63;59.94;95096.00;5133100;27;20597;-79
2022/09/07 04:45:54;;;;;;;8.07;4.05;;;;;;;21.29;58.37;95094.16;5132962;27;20209;-79
2022/09/07 04:48:21;;;;;;;6.38;4.38;;;;;;;22.04;56.76;95091.75;5113827;27;20266;-79
2022/09/07 04:50:48;;;;;;;6.03;4.82;;;;;;;22.23;55.74;95096.97;5112371;28;20205;-80
2022/09/07 04:53:15;;;;;;;7.18;4.50;;;;;;;22.43;54.72;95092.63;5112599;28;20288;-80
2022/09/07 04:55:42;;;;;;;7.47;4.60;;;;;;;23.11;53.18;95093.47;5112538;28;20206;-80
2022/09/07 04:58:09;;;;;;;6.75;4.47;;;;;;;23.48;51.14;95092.25;5112334;28;20194;-80
2022/09/07 05:00:37;;;;;;;9.70;5.18;;;;;;;23.96;49.86;95090.53;5111933;28;20274;-80
2022/09/07 05:03:06;;;;;;;9.80;4.68;;;;;;;24.13;48.99;95099.16;5112253;28;20656;-80
2022/09/07 05:05:36;;;;;;;8.45;5.35;;;;;;;24.65;47.24;95089.75;5111136;28;20205;-80
2022/09/07 05:08:03;;;;;;;10.07;4.95;;;;;;;24.87;46.44;95095.16;5112397;28;20418;-80
2022/09/07 05:10:30;;;;;;;7.13;5.00;;;;;;;24.51;47.85;95098.16;5112054;28;20250;-81
2022/09/07 05:12:57;;;;;;;8.75;5.10;;;;;;;25.14;46.33;95096.16;5112292;28;20255;-80
2022/09/07 05:15:24;;;;;;;8.63;5.00;;;;;;;26.02;43.89;95097.22;5111388;28;20694;-81
2022/09/07 05:17:51;;;;;;;5.80;4.55;;;;;;;26.13;43.42;95106.19;5112259;28;20207;-79
2022/09/07 05:20:20;;;;;;;7.05;4.60;;;;;;;26.77;42.39;95099.78;5111468;28;20198;-79
2022/09/07 05:22:47;;;;;;;5.85;4.57;;;;;;;26.41;42.96;95105.06;5112078;28;20221;-80
2022/09/07 05:25:14;;;;;;;6.28;4.47;;;;;;;26.75;41.87;95107.75;5111866;28;20205;-80
2022/09/07 05:27:41;;;;;;;5.97;4.20;;;;;;;27.14;41.36;95095.25;5111613;28;20197;-79
2022/09/07 05:30:09;;;;;;;5.88;4.18;;;;;;;26.74;40.88;95100.63;5118111;27;20614;-79
2022/09/07 05:32:36;;;;;;;8.52;3.85;;;;;;;26.15;41.30;95097.44;5132246;27;20201;-78
2022/09/07 05:35:03;;;;;;;4.05;2.22;;;;;;;25.13;39.62;95094.56;5131261;27;20227;-81
2022/09/07 05:37:32;;;;;;;7.20;2.60;;;;;;;25.68;40.44;95102.78;5131727;27;20703;-79
2022/09/07 05:39:59;;;;;;;5.07;2.42;;;;;;;25.65;39.36;95098.03;5132066;27;20197;-79
2022/09/07 05:42:26;;;;;;;3.90;2.15;;;;;;;25.74;39.02;95095.56;5131974;27;20712;-78
2022/09/07 05:44:52;;;;;;;5.65;2.20;;;;;;;25.06;40.76;95094.63;5131890;27;20205;-79
2022/09/07 05:47:19;;;;;;;4.63;2.15;;;;;;;25.77;39.84;95093.94;5121514;27;20190;-81
2022/09/07 05:49:46;;;;;;;4.35;2.15;;;;;;;25.33;40.59;95095.56;5111150;28;20212;-82
2022/09/07 05:52:13;;;;;;;4.47;2.42;;;;;;;26.74;37.79;95088.72;5111127;28;20316;-82
2022/09/07 05:54:41;;;;;;;3.05;1.85;;;;;;;26.67;37.71;95084.03;5111498;28;20251;-79
2022/09/07 05:57:11;;;;;;;3.22;2.20;;;;;;;26.85;37.52;95084.56;5111290;28;20197;-81
2022/09/07 05:59:38;;;;;;;4.93;2.15;;;;;;;25.46;39.08;95095.81;5110367;28;20552;-82
2022/09/07 06:02:05;;;;;;;3.45;2.08;;;;;;;26.12;39.76;95089.94;5110806;28;20229;-81
2022/09/07 06:04:32;;;;;;;3.40;2.00;;;;;;;26.63;38.49;95088.88;5111204;28;20270;-81
2022/09/07 06:06:59;;;;;;;3.40;2.17;;;;;;;27.09;37.05;95092.94;5111044;28;20255;-81
2022/09/07 06:09:26;;;;;;;6.00;2.28;;;;;;;27.71;35.85;95083.13;5111018;28;20679;-81
2022/09/07 06:11:54;;;;;;;3.92;2.10;;;;;;;28.37;35.84;95090.56;5111431;28;20201;-80
2022/09/07 06:14:21;;;;;;;4.05;2.17;;;;;;;28.64;34.81;95088.34;5110463;28;20907;-81
2022/09/07 06:16:48;;;;;;;2.70;2.08;;;;;;;28.03;34.76;95088.03;5109675;28;20189;-77
2022/09/07 06:19:15;;;;;;;4.95;2.55;;;;;;;27.21;36.24;95103.47;5110573;28;20201;-80
2022/09/07 06:21:42;;;;;;;5.65;2.72;;;;;;;25.65;38.47;95102.81;5109951;28;20286;-82
2022/09/07 06:24:09;;;;;;;3.78;1.90;;;;;;;26.40;38.36;95102.69;5110678;28;20657;-82
2022/09/07 06:26:36;;;;;;;5.55;2.70;;;;;;;26.12;38.78;95101.81;5110243;28;20659;-81
2022/09/07 06:29:04;;;;;;;5.72;2.70;;;;;;;25.49;39.21;95106.91;5110867;28;20206;-81
2022/09/07 06:31:31;;;;;;;7.57;2.47;;;;;;;26.02;38.05;95108.31;5128836;27;20229;-81
2022/09/07 06:33:58;;;;;;;5.93;2.90;;;;;;;26.64;37.56;95104.34;5130807;27;20894;-80
2022/09/07 06:36:26;;;;;;;8.00;3.05;;;;;;;25.91;38.42;95112.44;5130929;27;20217;-82
2022/09/07 06:38:55;;;;;;;4.13;2.67;;;;;;;26.68;37.34;95102.28;5131263;27;20231;-82
2022/09/07 06:41:23;;;;;;;4.72;2.28;;;;;;;27.05;36.91;95098.59;5131096;27;20224;-83
2022/09/07 06:43:50;;;;;;;6.57;2.60;;;;;;;26.31;36.93;95107.97;5130432;27;20230;-82
2022/09/07 06:46:19;;;;;;;4.63;2.03;;;;;;;26.04;38.06;95111.47;5129273;27;20220;-81
2022/09/07 06:48:46;;;;;;;4.22;2.42;;;;;;;24.92;39.57;95105.78;5109615;28;20214;-79
2022/09/07 06:51:14;;;;;;;5.82;2.25;;;;;;;24.93;40.70;95113.72;5109784;28;20201;-80
2022/09/07 06:53:42;;;;;;;5.50;2.50;;;;;;;25.78;38.76;95112.19;5110324;28;20387;-80
2022/09/07 06:56:10;;;;;;;2.80;2.30;;;;;;;26.34;37.68;95115.50;5110259;28;20409;-79
2022/09/07 06:58:38;;;;;;;3.95;2.08;;;;;;;26.89;37.45;95115.88;5110172;28;20198;-80
2022/09/07 07:01:06;;;;;;;5.20;1.95;;;;;;;26.78;36.34;95118.03;5110102;28;20278;-79
2022/09/07 07:03:34;;;;;;;5.50;2.17;;;;;;;25.28;38.76;95123.75;5110103;28;20564;-78
2022/09/07 07:06:01;;;;;;;3.50;2.00;;;;;;;25.41;38.31;95126.81;5109748;28;20197;-79
2022/09/07 07:08:28;;;;;;;5.38;2.05;;;;;;;25.67;38.61;95128.94;5110212;28;20198;-79
2022/09/07 07:10:55;;;;;;;5.25;2.58;;;;;;;25.19;40.14;95137.28;5109786;28;20448;-76
2022/09/07 07:13:22;;;;;;;5.13;2.20;;;;;;;25.37;40.73;95126.03;5109896;28;20602;-78
2022/09/07 07:15:50;;;;;;;6.30;2.50;;;;;;;23.93;41.77;95135.59;5109729;28;20202;-79
2022/09/07 07:18:16;;;;;;;4.60;2.80;;;;;;;23.83;43.03;95135.66;5109202;28;20212;-78
2022/09/07 07:20:45;;;;;;;5.45;2.65;;;;;;;24.06;42.41;95139.50;5109864;28;20270;-79
2022/09/07 07:23:12;;;;;;;3.58;2.28;;;;;;;24.23;41.85;95137.88;5109005;28;20221;-79
2022/09/07 07:25:39;;;;;;;8.50;2.35;;;;;;;25.14;40.63;95107.25;5109174;28;20731;-80
2022/09/07 07:28:05;;;;;;;5.93;2.67;;;;;;;24.10;41.62;95128.44;5109938;28;20201;-78
2022/09/07 07:30:32;;;;;;;4.35;2.60;;;;;;;24.28;41.82;95128.38;5123146;27;20224;-79
2022/09/07 07:32:59;;;;;;;6.80;2.50;;;;;;;23.68;43.12;95129.38;5134676;27;20205;-78
2022/09/07 07:35:26;;;;;;;3.85;2.38;;;;;;;23.42;43.99;95138.88;5133683;27;20220;-79
2022/09/07 07:37:54;;;;;;;5.70;2.30;;;;;;;23.18;45.70;95134.16;5134327;27;20224;-81
2022/09/07 07:40:22;;;;;;;3.15;2.53;;;;;;;24.51;42.67;95131.41;5134077;27;20253;-82
2022/09/07 07:42:48;;;;;;;4.63;2.70;;;;;;;24.72;41.55;95122.19;5133758;27;20257;-81
2022/09/07 07:45:15;;;;;;;6.47;2.90;;;;;;;24.15;42.56;95132.75;5134313;27;20427;-79
2022/09/07 07:47:42;;;;;;;5.13;2.47;;;;;;;24.04;43.45;95136.38;5120797;27;20197;-79
2022/09/07 07:50:10;;;;;;;5.90;2.70;;;;;;;23.95;43.51;95132.44;5112784;28;20683;-80
2022/09/07 07:52:39;;;;;;;5.30;2.60;;;;;;;23.96;43.94;95128.47;5113620;28;20252;-79
2022/09/07 07:55:08;;;;;;;4.30;2.33;;;;;;;24.64;43.46;95124.19;5112701;28;20632;-81
2022/09/07 07:57:36;;;;;;;5.70;2.50;;;;;;;23.90;44.25;95136.44;5113594;28;20221;-79
2022/09/07 08:00:05;;;;;;;4.15;2.35;;;;;;;22.87;45.88;95141.25;5113713;28;20225;-80
2022/09/07 08:02:31;;;;;;;8.55;3.22;;;;;;;23.14;46.35;95136.13;5113167;28;20316;-80
2022/09/07 08:04:58;;;;;;;6.05;2.38;;;;;;;23.35;46.59;95142.44;5113412;28;20205;-80
2022/09/07 08:07:25;;;;;;;5.90;2.70;;;;;;;23.27;45.59;95145.59;5113024;28;20255;-81
2022/09/07 08:09:52;;;;;;;4.68;2.45;;;;;;;23.77;44.76;95126.97;5113331;28;20652;-80
2022/09/07 08:12:20;;;;;;;5.38;2.45;;;;;;;23.24;45.86;95127.81;5113720;28;20206;-80
2022/09/07 08:14:48;;;;;;;8.52;2.72;;;;;;;23.15;46.25;95134.94;5113239;28;20220;-80
2022/09/07 08:17:17;;;;;;;5.80;2.50;;;;;;;23.01;46.36;95130.22;5113226;28;20198;-80
2022/09/07 08:19:44;;;;;;;4.13;2.40;;;;;;;23.14;47.01;95127.84;5112578;28;20603;-79
2022/09/07 08:22:12;;;;;;;5.10;2.47;;;;;;;22.97;47.18;95124.69;5112803;28;20233;-80
2022/09/07 08:24:39;;;;;;;6.97;2.72;;;;;;;23.40;46.38;95136.50;5112495;28;20724;-79
2022/09/07 08:27:06;;;;;;;4.90;2.80;;;;;;;22.50;47.92;95136.84;5112701;28;20206;-80
2022/09/07 08:29:34;;;;;;;6.85;2.67;;;;;;;22.39;48.18;95133.28;5114176;27;20255;-79
2022/09/07 08:32:01;;;;;;;3.22;2.35;;;;;;;23.10;47.72;95127.84;5133526;27;20290;-81
2022/09/07 08:34:28;;;;;;;5.15;2.60;;;;;;;23.12;46.71;95125.47;5133560;27;20509;-80
2022/09/07 08:36:55;;;;;;;4.72;2.65;;;;;;;23.32;46.55;95118.34;5132253;27;20723;-77
2022/09/07 08:39:21;;;;;;;4.57;3.08;;;;;;;23.36;45.97;95119.16;5133317;27;20216;-79
2022/09/07 08:42:13;;;;;;;4.05;2.50;;;;;;;23.38;47.23;95113.19;5132908;27;20224;-80
2022/09/07 08:44:46;;;;;;;4.30;2.85;;;;;;;23.51;45.97;95108.06;5132977;27;20407;-80
2022/09/07 08:47:24;;;;;;;4.68;2.83;;;;;;;23.37;46.21;95106.88;5123836;27;20602;-79
2022/09/07 08:49:55;;;;;;;4.43;3.10;;;;;;;23.61;45.38;95107.25;5112259;28;20653;-80
2022/09/07 08:52:26;;;;;;;4.30;2.75;;;;;;;23.58;45.56;95108.06;5112410;28;20254;-79
2022/09/07 08:55:01;;;;;;;3.47;2.88;;;;;;;23.69;45.58;95103.28;5112262;28;20637;-79
2022/09/07 08:57:33;;;;;;;4.80;2.88;;;;;;;23.55;45.70;95104.09;5111767;28;20189;-79
2022/09/07 09:00:07;;;;;;;3.50;2.60;;;;;;;23.66;45.70;95093.00;5112189;28;20230;-80
2022/09/07 09:02:34;;;;;;;3.92;2.58;;;;;;;23.14;45.91;95089.94;5112451;28;20216;-80
2022/09/07 09:05:03;;;;;;;4.00;2.80;;;;;;;23.42;45.51;95094.63;5112105;28;20198;-77
2022/09/07 09:07:36;;;;;;;4.50;2.92;;;;;;;23.56;46.29;95093.84;5111859;28;20551;-78
2022/09/07 09:10:23;;;;;;;5.00;3.10;;;;;;;23.98;45.20;95088.13;5112423;28;20190;-80
2022/09/07 09:13:01;;;;;;;5.70;2.80;;;;;;;24.17;45.77;95083.31;5112480;28;20238;-79
2022/09/07 09:15:41;;;;;;;4.28;2.72;;;;;;;23.47;45.32;95074.06;5111987;28;20668;-77
2022/09/07 09:18:23;;;;;;;5.40;2.50;;;;;;;24.07;45.02;95071.88;5112107;28;20186;-79
2022/09/07 09:20:54;;;;;;;4.75;2.75;;;;;;;23.64;45.13;95078.81;5111515;28;20270;-79
2022/09/07 09:23:24;;;;;;;4.72;2.53;;;;;;;23.00;45.72;95078.88;5112055;28;20233;-78
2022/09/07 09:25:54;;;;;;;7.72;2.65;;;;;;;23.15;45.71;95079.66;5111900;28;20186;-79
2022/09/07 09:28:21;;;;;;;3.60;2.47;;;;;;;23.22;46.43;95072.16;5111914;28;20197;-80
2022/09/07 09:30:50;;;;;;;6.72;2.50;;;;;;;23.07;45.80;95073.38;5123905;27;20225;-79
2022/09/07 09:33:19;;;;;;;6.55;2.50;;;;;;;23.49;45.63;95068.94;5131895;27;20215;-79
2022/09/07 09:35:48;;;;;;;8.82;2.90;;;;;;;23.55;45.22;95059.84;5131833;27;20603;-79
2022/09/07 09:38:42;;;;;;;3.17;2.50;;;;;;;23.45;45.19;95059.84;5132313;27;20207;-78
2022/09/07 09:41:11;;;;;;;6.53;2.70;;;;;;;23.73;45.87;95059.78;5094400;27;20936;-80
2022/09/07 09:43:45;;;;;;;3.35;2.80;;;;;;;24.03;45.36;95050.97;5131757;27;20698;-79
2022/09/07 09:46:20;;;;;;;5.15;2.70;;;;;;;24.51;44.48;95059.38;5131358;27;20185;-79
2022/09/07 09:48:55;;;;;;;3.88;2.47;;;;;;;24.98;42.43;95049.53;5111394;28;20191;-79
2022/09/07 09:51:24;;;;;;;3.88;2.65;;;;;;;24.94;42.40;95048.00;5110412;28;20239;-79
2022/09/07 09:53:56;;;;;;;3.58;2.47;;;;;;;24.86;43.20;95047.25;5111531;28;20197;-80
2022/09/07 09:56:37;;;;;;;4.20;3.20;;;;;;;24.83;42.76;95047.28;5111319;28;20182;-77
2022/09/07 09:59:13;;;;;;;3.47;2.60;;;;;;;24.99;42.51;95045.56;5110936;28;20280;-80
2022/09/07 10:01:42;;;;;;;3.97;3.03;;;;;;;25.11;42.70;95045.06;5111167;28;20221;-80
2022/09/07 10:04:29;;;;;;;3.72;2.80;;;;;;;25.27;43.06;95038.97;5111144;28;20201;-80
2022/09/07 10:06:58;;;;;;;5.00;2.90;;;;;;;25.11;42.10;95035.97;5111338;28;20189;-79
2022/09/07 10:09:30;;;;;;;7.10;2.60;;;;;;;25.03;42.32;95039.97;5111431;28;20247;-79
2022/09/07 10:11:59;;;;;;;4.15;2.92;;;;;;;25.01;42.47;95036.84;5110774;28;20254;-79
2022/09/07 10:14:30;;;;;;;3.20;2.70;;;;;;;24.57;42.53;95041.16;5110878;28;20201;-79
2022/09/07 10:17:00;;;;;;;6.80;2.90;;;;;;;24.23;43.58;95023.56;5110738;28;20649;-79
2022/09/07 10:19:33;;;;;;;4.53;2.75;;;;;;;24.75;43.08;95008.50;5110676;28;20269;-79
2022/09/07 10:22:02;;;;;;;6.63;2.60;;;;;;;24.85;44.12;95020.72;5110283;28;20234;-79
2022/09/07 10:24:34;;;;;;;2.83;2.63;;;;;;;25.17;43.35;95022.41;5110010;28;20205;-78
2022/09/07 10:27:01;;;;;;;4.95;2.70;;;;;;;24.71;43.16;95016.09;5110387;28;20254;-78
2022/09/07 10:29:34;;;;;;;3.70;2.60;;;;;;;24.67;43.56;95012.56;5111473;28;20202;-79
2022/09/07 10:32:29;;;;;;;4.97;2.70;;;;;;;24.54;44.72;95008.72;5131004;27;20193;-79
2022/09/07 10:35:07;;;;;;;4.78;2.80;;;;;;;24.13;45.08;95005.03;5131011;27;20224;-78
2022/09/07 10:37:43;;;;;;;6.72;2.97;;;;;;;24.06;43.79;95001.09;5130495;27;20608;-80
2022/09/07 10:40:24;;;;;;;4.70;2.97;;;;;;;24.42;44.99;94995.34;5130825;27;20189;-79
2022/09/07 10:42:58;;;;;;;3.90;2.88;;;;;;;24.17;44.30;95000.25;5130564;27;20295;-79
2022/09/07 10:45:35;;;;;;;3.30;2.65;;;;;;;23.99;44.83;94998.38;5130808;27;20490;-79
2022/09/07 10:48:13;;;;;;;4.20;2.90;;;;;;;23.86;44.89;94996.47;5115185;27;20246;-80
2022/09/07 10:50:47;;;;;;;3.78;2.65;;;;;;;24.03;44.51;94995.59;5110414;28;20247;-79
2022/09/07 10:53:31;;;;;;;4.72;3.10;;;;;;;24.28;45.42;94985.16;5109746;28;20186;-80
2022/09/07 10:56:06;;;;;;;4.65;3.03;;;;;;;24.43;44.79;94985.84;5110351;28;20521;-77
2022/09/07 10:58:43;;;;;;;5.93;3.20;;;;;;;24.55;44.69;94988.13;5109335;28;20186;-78
2022/09/07 11:01:19;;;;;;;4.72;3.20;;;;;;;24.63;44.29;94983.28;5109298;28;20262;-78
2022/09/07 11:04:02;;;;;;;3.70;2.85;;;;;;;24.60;44.09;94979.34;5108855;28;20278;-78
2022/09/07 11:06:35;;;;;;;4.50;3.10;;;;;;;24.67;44.20;94979.31;5110031;28;20188;-79
2022/09/07 11:09:35;;;;;;;4.60;3.25;;;;;;;24.89;43.73;94973.56;5110453;28;20190;-76
2022/09/07 11:12:07;;;;;;;3.10;2.80;;;;;;;25.06;43.72;94972.63;5109359;28;20285;-78
2022/09/07 11:14:41;;;;;;;5.35;2.90;;;;;;;25.16;42.85;94977.25;5110130;28;20189;-79
2022/09/07 11:17:15;;;;;;;4.25;3.00;;;;;;;25.11;43.64;94970.19;5109680;28;20673;-81
2022/09/07 11:19:49;;;;;;;5.68;2.75;;;;;;;25.55;42.97;94971.28;5109803;28;20193;-79
2022/09/07 11:22:27;;;;;;;3.10;2.80;;;;;;;25.65;42.44;94964.03;5109029;28;20259;-81
2022/09/07 11:24:59;;;;;;;4.22;2.88;;;;;;;25.96;42.19;94951.72;5109338;28;20271;-81
2022/09/07 11:27:32;;;;;;;6.05;3.22;;;;;;;25.69;42.00;94951.69;5110542;28;20554;-80
2022/09/07 11:30:04;;;;;;;5.60;3.47;;;;;;;25.57;41.59;94952.19;5115141;28;20229;-81
2022/09/07 11:32:35;;;;;;;3.25;2.95;;;;;;;25.75;42.27;94947.25;5130229;28;20188;-81
2022/09/07 11:35:13;;;;;;;3.25;2.92;;;;;;;26.16;41.60;94944.25;5130397;27;20752;-81
2022/09/07 11:37:46;;;;;;;4.13;3.25;;;;;;;26.09;41.65;94943.59;5130352;28;20593;-80
2022/09/07 11:40:20;;;;;;;3.67;2.97;;;;;;;26.37;40.82;94931.28;5130540;28;20276;-80
2022/09/07 11:42:52;;;;;;;7.43;3.20;;;;;;;26.51;41.47;94936.59;5130301;28;20562;-80
2022/09/07 11:45:25;;;;;;;4.80;3.53;;;;;;;26.70;40.98;94933.09;5129788;28;20190;-80
2022/09/07 11:47:58;;;;;;;5.00;3.40;;;;;;;26.92;40.26;94939.81;5115912;28;20326;-79
2022/09/07 11:50:29;;;;;;;4.70;3.47;;;;;;;26.91;41.87;94937.50;5110001;28;20182;-80